Time;durP1;ratioP1;P1;durP2;ratioP2;P2;SDS_P1;SDS_P2;PMS_P1;PMS_P2;Temp;Humidity;BMP_temperature;BMP_pressure;BME280_temperature;BME280_humidity;BME280_pressure;Samples;Min_cycle;Max_cycle;Signal;HPM_P1;HPM_P2
2022/07/09 00:00:18;;;;;;;8.13;7.07;;;;;;;13.56;89.74;101574.91;5022411;28;20033;-72
2022/07/09 00:02:43;;;;;;;8.82;7.22;;;;;;;13.51;90.28;101571.38;5023762;28;20458;-72
2022/07/09 00:05:08;;;;;;;7.80;7.10;;;;;;;13.51;90.99;101571.38;5023177;28;20041;-72
2022/07/09 00:07:34;;;;;;;10.63;7.60;;;;;;;13.53;91.44;101571.41;5024268;28;20037;-72
2022/07/09 00:09:59;;;;;;;8.98;7.72;;;;;;;13.54;91.14;101567.84;5026272;28;20045;-72
2022/07/09 00:12:24;;;;;;;8.93;8.13;;;;;;;13.57;90.44;101571.41;5022689;28;20442;-72
2022/07/09 00:14:50;;;;;;;12.13;7.18;;;;;;;13.57;90.85;101568.75;5029717;28;20412;-72
2022/07/09 00:17:16;;;;;;;7.63;6.88;;;;;;;13.59;90.63;101563.41;5024150;28;20487;-72
2022/07/09 00:19:41;;;;;;;7.68;7.00;;;;;;;13.59;90.59;101556.34;5020856;28;20046;-72
2022/07/09 00:22:06;;;;;;;8.98;7.88;;;;;;;13.59;90.92;101563.41;5024016;28;20037;-72
2022/07/09 00:24:32;;;;;;;12.82;7.45;;;;;;;13.52;90.78;101556.38;5025968;28;20026;-72
2022/07/09 00:26:57;;;;;;;11.30;8.27;;;;;;;13.41;91.22;101556.38;5025412;28;20120;-72
2022/07/09 00:29:23;;;;;;;7.88;7.15;;;;;;;13.33;91.13;101555.50;5021212;28;20045;-72
2022/07/09 00:31:48;;;;;;;7.75;6.78;;;;;;;13.32;90.72;101545.78;5023892;28;20033;-72
2022/07/09 00:34:13;;;;;;;8.75;7.00;;;;;;;13.26;90.97;101545.78;5021773;28;20042;-72
2022/07/09 00:36:39;;;;;;;9.77;8.65;;;;;;;13.19;90.60;101546.66;5023208;28;20044;-72
2022/07/09 00:39:04;;;;;;;9.05;8.13;;;;;;;13.12;91.06;101545.75;5023139;28;20030;-72
2022/07/09 00:41:29;;;;;;;9.55;8.35;;;;;;;13.10;92.46;101536.97;5021428;28;20072;-72
2022/07/09 00:43:55;;;;;;;9.05;7.38;;;;;;;13.13;92.08;101542.25;5024283;28;20534;-72
2022/07/09 00:46:21;;;;;;;9.32;7.47;;;;;;;13.16;91.73;101545.78;5020680;28;20080;-72
2022/07/09 00:48:47;;;;;;;12.00;8.18;;;;;;;13.21;92.65;101542.25;5023379;28;20125;-72
2022/07/09 00:51:14;;;;;;;11.55;9.18;;;;;;;13.21;93.57;101532.53;5019830;28;20124;-72
2022/07/09 00:53:40;;;;;;;8.77;7.95;;;;;;;13.18;92.85;101542.22;5022870;28;20041;-72
2022/07/09 00:56:05;;;;;;;9.02;8.23;;;;;;;13.16;92.53;101529.88;5021547;28;20038;-72
2022/07/09 00:58:33;;;;;;;8.90;8.10;;;;;;;13.15;92.01;101525.47;5024045;28;20175;-72
2022/07/09 01:00:58;;;;;;;8.60;7.90;;;;;;;13.10;91.02;101531.66;5020656;28;20040;-72
2022/07/09 01:03:23;;;;;;;11.45;8.65;;;;;;;13.04;91.35;101536.94;5023131;28;20377;-72
2022/07/09 01:05:49;;;;;;;9.65;8.65;;;;;;;12.96;91.62;101531.63;5021916;28;20033;-72
2022/07/09 01:08:14;;;;;;;11.25;8.70;;;;;;;12.91;92.29;101526.31;5021623;28;20086;-72
2022/07/09 01:10:40;;;;;;;9.27;8.38;;;;;;;12.85;91.42;101526.34;5023388;28;20120;-72
2022/07/09 01:13:06;;;;;;;9.50;8.60;;;;;;;12.81;92.88;101516.63;5019950;28;20034;-72
2022/07/09 01:15:32;;;;;;;10.35;8.25;;;;;;;12.77;92.72;101513.97;5023771;28;20072;-72
2022/07/09 01:17:58;;;;;;;11.55;10.35;;;;;;;12.73;95.08;101510.44;5021061;28;20034;-72
2022/07/09 01:20:30;;;;;;;9.52;8.63;;;;;;;12.73;95.47;101505.13;5022286;28;20045;-72
2022/07/09 01:22:56;;;;;;;11.05;10.05;;;;;;;12.75;94.97;101508.66;5022788;28;20033;-72
2022/07/09 01:25:31;;;;;;;10.98;9.88;;;;;;;12.74;96.67;101506.03;5020457;28;20030;-72
2022/07/09 01:27:56;;;;;;;9.88;8.93;;;;;;;12.79;96.00;101513.09;5021939;28;20098;-72
2022/07/09 01:30:26;;;;;;;12.00;10.65;;;;;;;12.84;94.84;101508.69;5022591;28;20543;-72
2022/07/09 01:32:52;;;;;;;11.55;10.45;;;;;;;12.83;96.71;101511.31;5019382;28;20041;-72
2022/07/09 01:35:17;;;;;;;10.70;9.63;;;;;;;12.90;97.28;101511.31;5023131;28;20037;-72
2022/07/09 01:37:43;;;;;;;17.65;13.43;;;;;;;12.97;97.59;101503.38;5024245;28;20043;-72
2022/07/09 01:40:09;;;;;;;12.40;9.52;;;;;;;12.99;95.86;101504.25;5024261;28;20496;-73
2022/07/09 01:42:34;;;;;;;13.45;9.75;;;;;;;13.00;95.64;101500.75;5025515;28;20048;-72
2022/07/09 01:44:59;;;;;;;11.40;9.10;;;;;;;12.99;95.00;101497.19;5022738;28;20038;-72
2022/07/09 01:47:25;;;;;;;14.27;10.57;;;;;;;12.97;96.14;101495.41;5019928;28;20077;-72
2022/07/09 01:49:50;;;;;;;11.55;8.98;;;;;;;12.96;96.50;101489.25;5027289;28;20029;-72
2022/07/09 01:52:16;;;;;;;13.13;9.60;;;;;;;12.93;95.28;101481.28;5023798;28;20041;-72
2022/07/09 01:54:41;;;;;;;11.85;9.75;;;;;;;12.93;94.90;101486.59;5020808;28;20065;-72
2022/07/09 01:57:06;;;;;;;14.13;10.27;;;;;;;12.91;96.30;101480.41;5020611;28;20044;-72
2022/07/09 01:59:32;;;;;;;8.90;8.00;;;;;;;12.88;96.25;101470.69;5022098;28;20037;-72
2022/07/09 02:01:57;;;;;;;8.88;7.97;;;;;;;12.83;97.41;101476.88;5019613;28;20536;-72
2022/07/09 02:04:22;;;;;;;11.68;10.43;;;;;;;12.75;98.13;101473.34;5022838;28;20411;-72
2022/07/09 02:06:48;;;;;;;11.15;9.25;;;;;;;12.70;98.53;101468.94;5019995;28;20129;-72
2022/07/09 02:09:13;;;;;;;11.20;9.82;;;;;;;12.68;99.53;101461.88;5022169;28;20069;-72
2022/07/09 02:11:38;;;;;;;11.48;9.93;;;;;;;12.68;99.33;101464.50;5020702;28;20048;-72
2022/07/09 02:14:04;;;;;;;14.20;10.15;;;;;;;12.65;98.34;101461.88;5021085;28;20041;-72
2022/07/09 02:16:29;;;;;;;9.95;8.93;;;;;;;12.61;98.26;101466.28;5025686;28;20032;-73
2022/07/09 02:18:55;;;;;;;11.05;10.00;;;;;;;12.58;98.20;101457.47;5019369;28;20754;-73
2022/07/09 02:21:20;;;;;;;10.35;9.40;;;;;;;12.56;97.87;101459.22;5018831;28;20147;-72
2022/07/09 02:23:46;;;;;;;16.80;10.57;;;;;;;12.50;97.83;101465.41;5022554;28;20507;-72
2022/07/09 02:26:12;;;;;;;10.45;9.35;;;;;;;12.46;98.16;101460.97;5020711;28;20034;-72
2022/07/09 02:28:37;;;;;;;14.88;11.02;;;;;;;12.42;97.99;101459.22;5020988;28;20039;-72
2022/07/09 02:31:03;;;;;;;14.77;11.88;;;;;;;12.38;98.06;101463.63;5021153;28;20076;-73
2022/07/09 02:33:30;;;;;;;12.75;9.35;;;;;;;12.37;98.08;101468.94;5019900;28;20066;-73
2022/07/09 02:35:55;;;;;;;13.00;11.45;;;;;;;12.34;98.33;101468.91;5022457;28;20077;-72
2022/07/09 02:38:21;;;;;;;10.63;9.63;;;;;;;12.30;98.22;101469.78;5019738;28;20105;-73
2022/07/09 02:40:47;;;;;;;11.40;10.30;;;;;;;12.26;98.28;101472.44;5021710;28;20049;-72
2022/07/09 02:43:12;;;;;;;14.45;12.68;;;;;;;12.25;98.76;101459.19;5020158;28;20042;-73
2022/07/09 02:45:38;;;;;;;12.55;10.90;;;;;;;12.25;98.77;101460.06;5020505;28;20045;-73
2022/07/09 02:48:03;;;;;;;14.73;11.93;;;;;;;12.25;99.82;101464.47;5021877;28;20041;-72
2022/07/09 02:50:28;;;;;;;12.35;10.77;;;;;;;12.24;99.01;101466.25;5016566;28;20048;-72
2022/07/09 02:52:54;;;;;;;13.35;12.05;;;;;;;12.22;99.67;101462.72;5021948;28;20116;-73
2022/07/09 02:55:19;;;;;;;15.98;10.95;;;;;;;12.21;100.00;101463.59;5019921;28;20037;-72
2022/07/09 02:57:44;;;;;;;12.27;11.07;;;;;;;12.22;99.56;101460.06;5021176;28;20048;-73
2022/07/09 03:00:10;;;;;;;14.15;12.70;;;;;;;12.23;100.00;101461.81;5021118;28;20042;-73
2022/07/09 03:02:35;;;;;;;12.32;10.98;;;;;;;12.23;100.00;101468.88;5018118;28;20045;-72
2022/07/09 03:05:01;;;;;;;14.57;12.70;;;;;;;12.23;100.00;101461.81;5000950;28;20034;-72
2022/07/09 03:07:26;;;;;;;15.95;11.23;;;;;;;12.24;100.00;101468.91;5022390;28;20045;-72
2022/07/09 03:09:52;;;;;;;13.15;10.50;;;;;;;12.21;99.71;101468.91;5028570;28;20107;-72
2022/07/09 03:12:18;;;;;;;12.48;9.43;;;;;;;12.19;98.66;101465.38;5025890;28;20112;-72
2022/07/09 03:14:43;;;;;;;18.65;10.48;;;;;;;12.16;99.71;101469.78;5024504;28;20124;-72
2022/07/09 03:17:09;;;;;;;9.60;8.70;;;;;;;12.17;99.69;101468.88;5023552;28;20096;-72
2022/07/09 03:19:34;;;;;;;12.13;8.65;;;;;;;12.13;99.51;101465.34;5021923;28;20030;-72
2022/07/09 03:21:59;;;;;;;11.25;9.95;;;;;;;12.10;99.09;101465.31;5025395;28;20041;-72
2022/07/09 03:24:25;;;;;;;14.95;12.90;;;;;;;12.17;100.00;101467.13;5025869;28;20029;-72
2022/07/09 03:26:50;;;;;;;17.10;11.68;;;;;;;12.20;100.00;101461.81;5020073;28;20072;-73
2022/07/09 03:29:15;;;;;;;12.18;9.20;;;;;;;12.16;99.89;101465.34;5029069;28;20095;-72
2022/07/09 03:31:41;;;;;;;11.45;10.23;;;;;;;12.17;100.00;101464.47;5024325;28;20037;-73
2022/07/09 03:34:06;;;;;;;13.30;11.40;;;;;;;12.22;100.00;101453.91;5024766;28;20041;-72
2022/07/09 03:36:32;;;;;;;12.07;10.98;;;;;;;12.30;100.00;101462.72;5025227;28;20029;-73
2022/07/09 03:38:57;;;;;;;14.52;12.27;;;;;;;12.37;100.00;101456.56;5029101;28;20497;-73
2022/07/09 03:41:23;;;;;;;14.75;12.65;;;;;;;12.44;100.00;101462.75;5024581;28;20052;-72
2022/07/09 03:43:48;;;;;;;14.00;12.63;;;;;;;12.49;100.00;101459.22;5026600;28;20038;-72
2022/07/09 03:46:13;;;;;;;11.80;10.82;;;;;;;12.58;100.00;101462.78;5027324;28;20416;-72
2022/07/09 03:48:39;;;;;;;11.82;10.63;;;;;;;12.67;100.00;101461.00;5021820;28;20108;-72
2022/07/09 03:51:04;;;;;;;76.95;72.68;;;;;;;12.72;100.00;101456.56;5020699;28;20038;-72
2022/07/09 03:53:30;;;;;;;83.65;79.10;;;;;;;12.79;100.00;101459.25;5028655;28;20044;-72
2022/07/09 03:55:55;;;;;;;83.60;79.07;;;;;;;12.89;100.00;101458.31;5022070;28;20042;-72
2022/07/09 03:58:20;;;;;;;71.38;67.28;;;;;;;12.96;100.00;101454.78;5024430;28;20029;-73
2022/07/09 04:00:46;;;;;;;68.60;64.13;;;;;;;13.07;100.00;101463.63;5023147;28;20512;-72
2022/07/09 04:03:11;;;;;;;69.55;65.80;;;;;;;13.18;100.00;101457.41;5022917;28;20037;-73
2022/07/09 04:05:37;;;;;;;86.30;81.68;;;;;;;13.23;100.00;101460.94;5024035;28;20038;-73
2022/07/09 04:08:02;;;;;;;64.75;60.90;;;;;;;13.34;100.00;101462.72;5026672;28;20037;-72
2022/07/09 04:10:27;;;;;;;74.47;70.40;;;;;;;13.43;99.95;101461.78;5021877;28;20496;-73
2022/07/09 04:12:54;;;;;;;90.25;85.72;;;;;;;13.59;99.36;101458.19;5024124;28;20076;-72
2022/07/09 04:15:20;;;;;;;125.00;118.35;;;;;;;13.78;98.28;101460.78;5024141;28;20470;-72
2022/07/09 04:17:45;;;;;;;96.10;90.85;;;;;;;13.98;97.43;101460.69;5028577;28;20052;-72
2022/07/09 04:20:11;;;;;;;37.35;35.25;;;;;;;14.16;95.82;101457.03;5027179;28;20546;-73
2022/07/09 04:22:36;;;;;;;69.68;65.05;;;;;;;14.28;95.44;101462.28;5024633;28;20036;-72
2022/07/09 04:25:02;;;;;;;58.55;55.05;;;;;;;14.55;93.98;101465.66;5021504;28;20036;-73
2022/07/09 04:27:27;;;;;;;67.32;63.65;;;;;;;14.65;92.51;101459.41;5024836;28;20064;-73
2022/07/09 04:29:53;;;;;;;85.97;81.50;;;;;;;14.73;91.89;101472.63;5025202;28;20053;-73
2022/07/09 04:32:18;;;;;;;96.90;91.82;;;;;;;14.74;91.69;101475.25;5022659;28;20041;-73
2022/07/09 04:34:44;;;;;;;85.25;80.80;;;;;;;14.82;90.32;101473.41;5023130;28;20046;-73
2022/07/09 04:37:09;;;;;;;58.15;55.20;;;;;;;14.88;89.89;101462.72;5021649;28;20472;-72
2022/07/09 04:39:34;;;;;;;70.88;66.88;;;;;;;14.82;90.20;101477.84;5024449;28;20381;-72
2022/07/09 04:42:00;;;;;;;55.72;52.70;;;;;;;14.81;89.51;101466.34;5020515;28;20057;-72
2022/07/09 04:44:25;;;;;;;64.75;61.42;;;;;;;14.81;90.54;101469.00;5023913;28;20029;-73
2022/07/09 04:46:50;;;;;;;56.97;53.70;;;;;;;14.84;90.90;101476.94;5022297;28;20496;-73
2022/07/09 04:49:16;;;;;;;61.40;58.03;;;;;;;14.93;90.49;101475.97;5020765;28;20054;-73
2022/07/09 04:51:41;;;;;;;46.03;43.40;;;;;;;15.01;90.31;101481.19;5022495;28;20095;-73
2022/07/09 04:54:06;;;;;;;44.47;41.97;;;;;;;15.03;88.61;101474.97;5027794;28;20037;-73
2022/07/09 04:56:32;;;;;;;35.38;33.28;;;;;;;15.05;88.12;101481.16;5025489;28;20408;-73
2022/07/09 04:59:00;;;;;;;55.15;52.15;;;;;;;15.21;88.63;101473.91;5023841;28;20408;-73
2022/07/09 05:01:25;;;;;;;40.97;38.58;;;;;;;15.35;86.55;101476.44;5022938;28;20539;-73
2022/07/09 05:03:50;;;;;;;28.48;26.55;;;;;;;15.45;85.73;101479.88;5023845;28;20075;-73
2022/07/09 05:06:17;;;;;;;26.52;24.35;;;;;;;15.55;84.56;101481.53;5021589;28;20041;-73
2022/07/09 05:08:42;;;;;;;29.10;27.33;;;;;;;15.61;84.39;101473.47;5022328;28;20132;-72
2022/07/09 05:11:08;;;;;;;39.30;37.08;;;;;;;15.63;83.68;101482.31;5019965;28;20120;-73
2022/07/09 05:13:33;;;;;;;27.52;25.83;;;;;;;15.55;82.90;101478.88;5023634;28;20044;-73
2022/07/09 05:15:58;;;;;;;24.42;22.60;;;;;;;15.57;83.16;101485.06;5021384;28;20096;-74
2022/07/09 05:18:24;;;;;;;28.38;26.20;;;;;;;15.68;83.01;101483.16;5023271;28;20034;-73
2022/07/09 05:20:49;;;;;;;23.58;21.90;;;;;;;15.70;81.45;101472.53;5020314;28;20472;-73
2022/07/09 05:23:15;;;;;;;28.88;27.20;;;;;;;15.74;81.94;101476.91;5020742;28;20060;-73
2022/07/09 05:25:40;;;;;;;27.45;25.70;;;;;;;15.80;81.25;101476.84;5023487;28;20033;-73
2022/07/09 05:28:05;;;;;;;20.95;18.92;;;;;;;15.81;80.08;101475.06;5020142;28;20084;-73
2022/07/09 05:30:36;;;;;;;18.77;17.33;;;;;;;15.71;81.31;101476.94;5022961;28;20168;-73
2022/07/09 05:33:05;;;;;;;29.73;28.00;;;;;;;15.55;81.41;101476.22;5021623;28;20507;-73
2022/07/09 05:35:30;;;;;;;29.73;27.40;;;;;;;15.51;81.27;101478.03;5023189;28;20038;-73
2022/07/09 05:37:56;;;;;;;32.08;30.27;;;;;;;15.59;81.07;101472.63;5024320;28;20049;-73
2022/07/09 05:40:22;;;;;;;34.40;31.55;;;;;;;15.78;80.41;101479.50;5025004;28;20030;-73
2022/07/09 05:42:47;;;;;;;22.73;20.92;;;;;;;15.94;79.86;101476.66;5023961;28;20548;-73
2022/07/09 05:45:12;;;;;;;20.42;19.00;;;;;;;15.90;79.10;101480.25;5024765;28;20053;-72
2022/07/09 05:47:38;;;;;;;18.90;17.55;;;;;;;15.91;78.34;101469.59;5020271;28;20108;-72
2022/07/09 05:50:03;;;;;;;29.60;27.50;;;;;;;15.91;78.80;101472.25;5020970;28;20420;-73
2022/07/09 05:52:29;;;;;;;39.85;37.30;;;;;;;16.11;76.88;101466.66;5025435;28;20087;-71
2022/07/09 05:54:54;;;;;;;25.23;23.30;;;;;;;16.24;75.09;101462.00;5019721;28;20034;-71
2022/07/09 05:57:19;;;;;;;21.38;20.08;;;;;;;16.37;73.82;101465.38;5022650;28;20492;-71
2022/07/09 05:59:45;;;;;;;35.85;33.40;;;;;;;16.33;73.92;101469.88;5021088;28;20116;-71
2022/07/09 06:02:10;;;;;;;27.58;25.48;;;;;;;16.40;73.52;101473.31;5022654;28;20068;-71
2022/07/09 06:04:35;;;;;;;28.58;26.75;;;;;;;16.67;71.96;101479.16;5023756;28;20030;-71
2022/07/09 06:07:01;;;;;;;25.65;23.77;;;;;;;16.55;71.95;101475.75;5022324;28;20095;-71
2022/07/09 06:09:26;;;;;;;21.17;19.08;;;;;;;16.42;72.92;101476.84;5026786;28;20030;-71
2022/07/09 06:11:51;;;;;;;19.48;17.98;;;;;;;16.67;72.80;101476.47;5024830;28;20510;-71
2022/07/09 06:14:19;;;;;;;20.33;18.58;;;;;;;16.63;71.68;101496.94;5027646;28;20038;-70
2022/07/09 06:16:46;;;;;;;19.70;17.98;;;;;;;16.64;72.23;101491.63;5024111;28;20499;-71
2022/07/09 06:19:12;;;;;;;17.65;16.02;;;;;;;16.83;70.83;101480.69;5022673;28;20029;-71
2022/07/09 06:21:38;;;;;;;21.23;19.80;;;;;;;16.90;70.75;101485.00;5025794;28;20403;-71
2022/07/09 06:24:03;;;;;;;16.75;15.20;;;;;;;16.94;70.51;101477.81;5023064;28;20554;-71
2022/07/09 06:26:30;;;;;;;20.50;18.67;;;;;;;16.96;70.84;101490.22;5020046;28;20037;-70
2022/07/09 06:28:55;;;;;;;20.52;18.90;;;;;;;16.84;69.85;101490.41;5021431;28;20140;-71
2022/07/09 06:31:21;;;;;;;49.60;46.63;;;;;;;16.65;72.01;101495.16;5020807;28;20221;-71
2022/07/09 06:33:46;;;;;;;32.28;29.92;;;;;;;16.72;71.39;101493.28;5020454;28;20081;-70
2022/07/09 06:36:11;;;;;;;37.10;34.67;;;;;;;16.74;71.61;101491.44;5022230;28;20041;-71
2022/07/09 06:39:44;;;;;;;49.10;46.42;;;;;;;16.80;70.36;101488.72;5019237;28;20073;-71
2022/07/09 06:41:22;;;;;;;23.88;21.80;;;;;;;16.72;70.75;101485.28;5019077;28;20033;-71
2022/07/09 06:43:48;;;;;;;22.30;12.10;;;;;;;16.79;69.83;101484.28;5025102;28;20037;-71
2022/07/09 06:46:13;;;;;;;12.82;11.52;;;;;;;16.60;70.68;101481.00;5023788;28;20415;-71
2022/07/09 06:48:38;;;;;;;14.95;13.52;;;;;;;16.70;71.11;101484.41;5025606;28;20095;-71
2022/07/09 06:51:04;;;;;;;15.45;14.20;;;;;;;16.64;69.63;101488.94;5021741;28;20044;-71
2022/07/09 06:53:29;;;;;;;16.65;15.55;;;;;;;16.76;69.89;101482.53;5025609;28;20037;-70
2022/07/09 06:55:54;;;;;;;20.15;18.10;;;;;;;16.77;69.19;101480.75;5024145;28;20085;-70
2022/07/09 06:58:20;;;;;;;21.45;17.65;;;;;;;16.83;69.39;101481.56;5026362;28;20045;-70
2022/07/09 07:00:45;;;;;;;20.48;18.88;;;;;;;16.86;68.84;101496.63;5024424;28;20045;-71
2022/07/09 07:03:10;;;;;;;21.30;19.75;;;;;;;16.94;69.19;101492.03;5023531;28;20021;-70
2022/07/09 07:05:36;;;;;;;22.23;20.75;;;;;;;16.89;68.05;101483.22;5029875;28;20415;-70
2022/07/09 07:08:01;;;;;;;17.30;15.10;;;;;;;16.92;68.04;101490.28;5028720;28;20404;-71
2022/07/09 07:10:26;;;;;;;21.50;19.30;;;;;;;16.90;68.46;101498.34;5027534;28;20480;-70
2022/07/09 07:12:54;;;;;;;30.30;28.02;;;;;;;16.69;68.07;101493.31;5025257;28;20527;-70
2022/07/09 07:15:19;;;;;;;19.33;18.13;;;;;;;16.73;67.77;101487.03;5031345;28;20040;-70
2022/07/09 07:17:44;;;;;;;17.30;16.27;;;;;;;16.61;67.96;101489.00;5026572;28;20029;-70
2022/07/09 07:20:10;;;;;;;17.58;16.15;;;;;;;16.64;68.51;101482.75;5027130;28;20111;-70
2022/07/09 07:22:35;;;;;;;20.67;19.45;;;;;;;16.76;67.37;101482.53;5025950;28;20830;-71
2022/07/09 07:25:01;;;;;;;19.58;18.17;;;;;;;16.75;66.72;101491.44;5028742;28;20037;-71
2022/07/09 07:27:26;;;;;;;18.77;17.58;;;;;;;16.89;66.54;101487.69;5023761;28;20088;-70
2022/07/09 07:29:51;;;;;;;16.10;14.95;;;;;;;16.87;66.53;101485.03;5025971;28;20037;-71
2022/07/09 07:32:17;;;;;;;16.15;14.77;;;;;;;17.13;65.94;101491.72;5021580;28;20049;-71
2022/07/09 07:34:42;;;;;;;18.35;16.73;;;;;;;17.06;65.58;101491.81;5023232;28;20053;-71
2022/07/09 07:37:07;;;;;;;17.00;15.50;;;;;;;17.19;65.98;101478.28;5028972;28;20037;-71
2022/07/09 07:39:32;;;;;;;15.40;14.25;;;;;;;17.44;64.82;101460.88;5024185;28;20037;-71
2022/07/09 07:41:58;;;;;;;15.73;14.60;;;;;;;17.68;63.41;101462.19;5024006;28;20041;-71
2022/07/09 07:44:24;;;;;;;14.73;13.73;;;;;;;17.67;63.40;101459.53;5019533;28;20040;-71
2022/07/09 07:46:49;;;;;;;14.70;12.88;;;;;;;17.65;63.85;101472.03;5025368;28;20520;-70
2022/07/09 07:49:14;;;;;;;14.60;13.15;;;;;;;17.81;63.83;101457.47;5027866;28;20037;-71
2022/07/09 07:51:42;;;;;;;15.07;12.48;;;;;;;17.94;63.27;101456.28;5022210;28;20037;-71
2022/07/09 07:54:08;;;;;;;50.00;47.05;;;;;;;17.94;62.17;101450.94;5026263;28;20044;-71
2022/07/09 07:56:36;;;;;;;14.40;13.25;;;;;;;18.03;62.66;101443.69;5023199;28;20038;-71
2022/07/09 07:59:02;;;;;;;13.18;11.90;;;;;;;18.18;62.98;101441.53;5026213;28;20496;-71
2022/07/09 08:01:28;;;;;;;12.63;11.73;;;;;;;18.35;60.94;101440.25;5011944;28;20048;-71
2022/07/09 08:03:53;;;;;;;12.20;11.15;;;;;;;18.55;61.38;101437.97;5026123;28;20044;-71
2022/07/09 08:06:18;;;;;;;14.50;13.25;;;;;;;18.83;60.18;101448.84;5025009;28;20033;-71
2022/07/09 08:08:44;;;;;;;11.70;10.70;;;;;;;18.65;59.90;101438.59;5023944;28;20049;-71
2022/07/09 08:11:09;;;;;;;11.07;9.95;;;;;;;18.39;61.28;101440.16;5026716;28;20052;-71
2022/07/09 08:13:34;;;;;;;13.52;12.00;;;;;;;18.43;62.44;101442.72;5024667;28;20046;-70
2022/07/09 08:16:01;;;;;;;14.65;13.55;;;;;;;18.12;64.47;101433.63;5019250;28;20037;-70
2022/07/09 08:18:27;;;;;;;22.10;20.27;;;;;;;18.00;64.74;101435.69;5025181;28;20037;-71
2022/07/09 08:20:52;;;;;;;25.88;24.25;;;;;;;17.92;66.82;101431.44;5026566;28;20037;-71
2022/07/09 08:23:17;;;;;;;22.38;20.73;;;;;;;17.86;66.74;101428.88;5025676;28;20041;-71
2022/07/09 08:25:43;;;;;;;23.95;22.20;;;;;;;17.68;67.04;101426.56;5026234;28;20195;-71
2022/07/09 08:28:08;;;;;;;26.48;24.63;;;;;;;17.75;65.97;101446.91;5028560;28;20569;-71
2022/07/09 08:30:34;;;;;;;19.17;17.77;;;;;;;17.90;65.79;101441.25;5022630;28;20040;-71
2022/07/09 08:32:59;;;;;;;22.83;21.35;;;;;;;18.11;65.69;101436.34;5023562;28;20042;-70
2022/07/09 08:35:25;;;;;;;31.05;29.15;;;;;;;18.18;64.76;101433.50;5021578;28;20077;-71
2022/07/09 08:37:52;;;;;;;23.75;22.10;;;;;;;18.23;63.23;101430.72;5024704;28;20114;-71
2022/07/09 08:40:17;;;;;;;26.35;24.75;;;;;;;18.26;63.48;101430.66;5024462;28;20053;-71
2022/07/09 08:42:43;;;;;;;33.20;31.02;;;;;;;18.30;63.60;101428.78;5026567;28;20042;-71
2022/07/09 08:45:12;;;;;;;27.20;25.10;;;;;;;18.56;63.46;101417.47;5026098;28;20035;-71
2022/07/09 08:47:38;;;;;;;30.45;28.63;;;;;;;18.67;62.37;101406.47;5024431;28;20088;-71
2022/07/09 08:50:04;;;;;;;41.25;38.83;;;;;;;18.61;61.03;101407.53;5018969;28;20049;-70
2022/07/09 08:52:29;;;;;;;43.83;41.38;;;;;;;18.62;61.61;101409.28;5019436;28;20116;-70
2022/07/09 08:54:55;;;;;;;45.72;42.83;;;;;;;18.67;61.01;101410.03;5021801;28;20647;-70
2022/07/09 08:57:20;;;;;;;50.88;48.25;;;;;;;18.69;60.85;101421.56;5023456;28;20026;-71
2022/07/09 08:59:46;;;;;;;52.42;49.78;;;;;;;18.74;60.05;101406.28;5027890;28;20052;-70
2022/07/09 09:02:13;;;;;;;50.28;47.25;;;;;;;18.92;61.30;101398.75;5025558;28;20037;-71
2022/07/09 09:04:39;;;;;;;50.20;47.60;;;;;;;19.14;58.86;101402.56;5026049;28;20036;-70
2022/07/09 09:07:19;;;;;;;48.83;46.38;;;;;;;19.16;59.69;101402.53;5021873;28;20034;-71
2022/07/09 09:09:45;;;;;;;49.25;46.65;;;;;;;19.53;58.95;101402.34;5007893;28;20100;-70
2022/07/09 09:12:11;;;;;;;48.05;45.50;;;;;;;19.68;59.25;101401.94;5021781;28;20606;-71
2022/07/09 09:14:36;;;;;;;37.88;35.78;;;;;;;19.98;56.70;101409.06;5017924;28;20038;-71
2022/07/09 09:17:09;;;;;;;49.65;47.13;;;;;;;19.83;57.34;101410.41;5024553;28;20091;-70
2022/07/09 09:19:35;;;;;;;46.85;44.47;;;;;;;19.84;56.33;101412.19;5024941;28;20543;-71
2022/07/09 09:22:00;;;;;;;48.03;45.63;;;;;;;19.81;56.54;101414.97;5004317;28;20052;-71
2022/07/09 09:24:26;;;;;;;84.95;80.82;;;;;;;19.97;57.19;101412.69;5024874;28;20092;-71
2022/07/09 09:26:56;;;;;;;47.63;45.00;;;;;;;20.19;55.68;101412.88;5028624;28;20569;-71
2022/07/09 09:29:21;;;;;;;60.40;57.33;;;;;;;20.28;54.87;101401.88;5026495;28;20080;-71
2022/07/09 09:31:48;;;;;;;35.70;33.47;;;;;;;20.31;55.21;101397.25;5023707;28;20037;-70
2022/07/09 09:34:15;;;;;;;41.70;39.47;;;;;;;20.50;54.61;101396.66;5022281;28;20053;-71
2022/07/09 09:36:46;;;;;;;51.95;49.42;;;;;;;20.50;54.61;101391.28;5021672;28;20033;-71
2022/07/09 09:39:25;;;;;;;78.82;74.72;;;;;;;20.71;54.83;101397.75;5019956;28;20034;-71
2022/07/09 09:41:53;;;;;;;47.58;45.22;;;;;;;20.58;54.09;101392.81;5019382;28;20038;-71
2022/07/09 09:44:23;;;;;;;60.75;57.38;;;;;;;20.38;55.34;101405.97;5019969;28;20033;-71
2022/07/09 09:46:49;;;;;;;55.75;53.05;;;;;;;20.11;55.29;101400.59;5028016;28;20034;-71
2022/07/09 09:49:15;;;;;;;53.22;50.60;;;;;;;20.08;55.63;101398.00;5024769;28;20408;-71
2022/07/09 09:51:43;;;;;;;65.22;61.95;;;;;;;20.26;55.18;101395.66;5026716;28;20034;-70
2022/07/09 09:54:10;;;;;;;53.30;50.70;;;;;;;20.74;55.12;101387.78;5026364;28;20099;-70
2022/07/09 09:56:35;;;;;;;55.92;53.22;;;;;;;20.91;53.61;101381.84;5028247;28;20037;-71
2022/07/09 09:59:01;;;;;;;57.17;54.28;;;;;;;20.68;54.51;101377.28;5012163;28;20064;-71
2022/07/09 10:01:28;;;;;;;72.05;68.45;;;;;;;20.44;54.63;101373.59;5026830;28;20025;-70
2022/07/09 10:03:54;;;;;;;68.85;65.60;;;;;;;20.67;54.54;101393.41;5027997;28;20100;-71
2022/07/09 10:06:19;;;;;;;75.30;71.63;;;;;;;20.74;54.15;101378.88;5023791;28;20412;-71
2022/07/09 10:08:45;;;;;;;83.20;79.20;;;;;;;20.57;54.31;101368.75;5022939;28;20038;-70
2022/07/09 10:11:10;;;;;;;78.25;74.47;;;;;;;20.73;55.04;101355.66;5022122;28;20127;-70
2022/07/09 10:13:56;;;;;;;55.47;52.78;;;;;;;20.83;54.88;101364.25;5019724;28;20047;-70
2022/07/09 10:16:39;;;;;;;50.45;47.60;;;;;;;20.65;54.26;101373.84;5024216;28;20080;-70
2022/07/09 10:19:05;;;;;;;31.15;29.38;;;;;;;20.76;54.34;101374.34;5021979;28;20114;-71
2022/07/09 10:21:41;;;;;;;45.63;43.08;;;;;;;20.85;53.82;101362.38;5020602;28;20400;-71
2022/07/09 10:24:08;;;;;;;38.83;36.63;;;;;;;20.52;55.48;101371.53;5020837;28;20408;-71
2022/07/09 10:26:44;;;;;;;26.52;24.85;;;;;;;20.55;55.39;101362.53;5020581;28;20041;-71
2022/07/09 10:29:24;;;;;;;21.98;20.70;;;;;;;20.56;54.57;101362.47;5019445;28;20485;-70
2022/07/09 10:31:50;;;;;;;64.72;61.33;;;;;;;20.51;54.21;101359.06;5019080;28;20048;-71
2022/07/09 10:34:35;;;;;;;44.03;41.78;;;;;;;20.95;53.12;101361.13;5022622;28;20041;-70
2022/07/09 10:37:03;;;;;;;45.47;43.08;;;;;;;20.96;53.47;101350.34;5026362;28;20025;-70
2022/07/09 10:39:29;;;;;;;35.30;33.50;;;;;;;21.05;53.72;101340.22;5019265;28;20038;-71
2022/07/09 10:42:18;;;;;;;53.70;51.13;;;;;;;20.97;52.86;101357.47;5021319;28;20191;-71
2022/07/09 10:44:45;;;;;;;51.90;49.13;;;;;;;20.99;53.47;101344.00;5020714;28;20477;-71
2022/07/09 10:47:11;;;;;;;47.22;44.83;;;;;;;21.27;52.25;101341.16;5022179;28;20468;-71
2022/07/09 10:49:37;;;;;;;53.25;50.60;;;;;;;21.41;52.59;101340.69;5019820;28;20053;-71
2022/07/09 10:52:04;;;;;;;62.83;59.88;;;;;;;21.66;51.65;101340.56;5018890;28;20099;-70
2022/07/09 10:54:29;;;;;;;62.25;59.10;;;;;;;21.79;51.16;101349.03;5021691;28;20408;-71
2022/07/09 10:56:55;;;;;;;54.50;51.80;;;;;;;21.52;51.66;101345.63;5024454;28;20049;-71
2022/07/09 10:59:21;;;;;;;55.10;52.00;;;;;;;21.44;52.87;101341.41;5019855;28;20034;-71
2022/07/09 11:01:47;;;;;;;49.60;47.20;;;;;;;21.86;52.53;101329.91;5021428;28;20037;-71
2022/07/09 11:04:29;;;;;;;50.75;48.22;;;;;;;22.46;50.04;101324.75;5027438;28;20041;-71
2022/07/09 11:06:55;;;;;;;59.30;56.40;;;;;;;22.38;50.03;101320.66;5024219;28;20052;-71